Accueil
METAR-TAF:

METAR-TAF

Aéroports :

Schwäbisch Hall, Allemagne

latitude: 49-07-06N, longitude: 9-47-02E, altitude: 398 m

Observation

Le bulletin a été fait il y a 1 heure et 18 minutes, à 10:50 UTC
Vent 9 kt de ouest, variant entre ouest/sud-ouest et nord-ouest
Température 10°C
Humidité 50%
Pression 1016 hPa
Visibilité 10 km ou plus
pas de nuages en-dessous de 1500 mètres et pas de cumulonimbus.

METAR: EDTY 031050Z 28009KT 250V310 CAVOK 10/M00 Q1016

Heure: 14:08 (12:08 UTC)

Prévision

Le bulletin a été fait il y a 1 heure et 8 minutes, à 11:00 UTC
Prévision valable du 03 à 12 UTC au 03 à 21 UTC
Vent 10 kt de ouest/sud-ouest
Visibilité 10 km ou plus
Nuages épars à une hauteur de 4500 ft
Evoluant progressivement
du 03 à 16 UTC au 03 à 18 UTC
Vent 3 kt de ouest

TAF: EDTY 031100Z 0312/0321 24010KT 9999 SCT045 BECMG 0316/0318 27003KT

Observations et prévisions météorologiques de plus de 4000 aéroports (messages METAR et TAF).

Les stations disponibles sont représentées par des disques jaunes et rouges sur la carte.

Passer la souris dessus pour voir le nom de la station.

Cliquer dessus pour voir les observations et prévisions météorologiques.

Pour changer de carte: cliquez sur les boutons verts avec une croix noire pour zoomer, sur le bouton vert avec un tiret pour effectuer un zoom arrière, ou sur les flèches vertes pour les cartes adjacentes.


METAR-TAF: